NCAR-RAP Real-Time Weather Data

Output produced by METARs form (21 August 2017  04:39 UTC)
found at http://weather.rap.ucar.edu/surface/
 
Conditions at: KGIF observed 21 August 2017  03:53 UTC
Temperature: 26.1°C (79°F)
Dewpoint: 23.9°C (75°F) [RH = 88%]
Pressure (altimeter): 30.13 inches Hg (1020.4 mb)
[Sea-level pressure: 1020.1 mb]
Winds: from the ESE (120 degrees) at 5 MPH (4 knots; 2.1 m/s)
Visibility: 10 or more miles (16+ km)
Ceiling: at least 12,000 feet AGL
Clouds: sky clear below 12,000 feet AGL
Present Weather: automated observation with no human augmentation;
there may or may not be significant weather present at this time
KGIF 210353Z AUTO 12004KT 10SM CLR 26/24 A3013 RMK AO2 SLP201 T02610239

Conditions at: KGIF observed 21 August 2017  02:53 UTC
Temperature: 26.1°C (79°F)
Dewpoint: 23.9°C (75°F) [RH = 88%]
Pressure (altimeter): 30.11 inches Hg (1019.7 mb)
[Sea-level pressure: 1019.5 mb]
Winds: from the ESE (120 degrees) at 6 MPH (5 knots; 2.6 m/s)
Visibility: 10 or more miles (16+ km)
Ceiling: at least 12,000 feet AGL
Clouds: sky clear below 12,000 feet AGL
Present Weather: automated observation with no human augmentation;
there may or may not be significant weather present at this time
KGIF 210253Z AUTO 12005KT 10SM CLR 26/24 A3011 RMK AO2 SLP195 T02610239 53014

Conditions at: KGIF observed 21 August 2017  01:53 UTC
Temperature: 26.1°C (79°F)
Dewpoint: 23.3°C (74°F) [RH = 85%]
Pressure (altimeter): 30.10 inches Hg (1019.4 mb)
[Sea-level pressure: 1019.1 mb]
Winds: from the E (100 degrees) at 8 MPH (7 knots; 3.6 m/s)
Visibility: 10 or more miles (16+ km)
Ceiling: at least 12,000 feet AGL
Clouds: sky clear below 12,000 feet AGL
Present Weather: automated observation with no human augmentation;
there may or may not be significant weather present at this time
KGIF 210153Z AUTO 10007KT 10SM CLR 26/23 A3010 RMK AO2 SLP191 T02610233

Conditions at: KGIF observed 21 August 2017  00:53 UTC
Temperature: 25.0°C (77°F)
Dewpoint: 22.8°C (73°F) [RH = 88%]
Pressure (altimeter): 30.08 inches Hg (1018.7 mb)
[Sea-level pressure: 1018.4 mb]
Winds: from the E (90 degrees) at 5 MPH (4 knots; 2.1 m/s)
Visibility: 10 or more miles (16+ km)
Ceiling: at least 12,000 feet AGL
Clouds: sky clear below 12,000 feet AGL
Present Weather: automated observation with no human augmentation;
there may or may not be significant weather present at this time
KGIF 210053Z AUTO 09004KT 10SM CLR 25/23 A3008 RMK AO2 SLP184 T02500228

Conditions at: KGIF observed 20 August 2017  23:53 UTC
Temperature: 25.0°C (77°F)
Dewpoint: 22.8°C (73°F) [RH = 88%]
Pressure (altimeter): 30.07 inches Hg (1018.4 mb)
[Sea-level pressure: 1018.1 mb]
Winds: from the SE (130 degrees) at 3 MPH (3 knots; 1.6 m/s)
Visibility: 10 or more miles (16+ km)
Ceiling: at least 12,000 feet AGL
Clouds: sky clear below 12,000 feet AGL
Present Weather: automated observation with no human augmentation;
there may or may not be significant weather present at this time
KGIF 202353Z AUTO 13003KT 10SM CLR 25/23 A3007 RMK AO2 RAE30 SLP181 P0000 60010 T02500228 10328 20244 53003

Conditions at: KGIF observed 20 August 2017  22:53 UTC
Temperature: 24.4°C (76°F)
Dewpoint: 21.7°C (71°F) [RH = 85%]
Pressure (altimeter): 30.05 inches Hg (1017.7 mb)
[Sea-level pressure: 1017.3 mb]
Winds: from the E (80 degrees) at 8 MPH (7 knots; 3.6 m/s)
Visibility: 10 or more miles (16+ km)
Ceiling: at least 12,000 feet AGL
Clouds: scattered clouds at 11000 feet AGL
Present Weather: -RA  (light rain)
KGIF 202253Z AUTO 08007KT 10SM -RA SCT110 24/22 A3005 RMK AO2 TSE2159 SLP173 P0004 T02440217

Conditions at: KGIF observed 20 August 2017  22:12 UTC
Temperature: 25.0°C (77°F)
Dewpoint: 23.3°C (74°F) [RH = 90%]
Pressure (altimeter): 30.06 inches Hg (1018.0 mb)
Winds: from the ESE (110 degrees) at 14 MPH (12 knots; 6.2 m/s)
Visibility: 10 or more miles (16+ km)
Ceiling: 9000 feet AGL
Clouds: few clouds at 2300 feet AGL
broken clouds at 9000 feet AGL
overcast cloud deck at 11000 feet AGL
Present Weather: -RA  (light rain)
KGIF 202212Z AUTO 11012KT 10SM -RA FEW023 BKN090 OVC110 25/23 A3006 RMK AO2 LTG DSNT N AND SE TSE2159 P0001 T02500233

Conditions at: KGIF observed 20 August 2017  22:05 UTC
Temperature: 25.6°C (78°F)
Dewpoint: 23.3°C (74°F) [RH = 87%]
Pressure (altimeter): 30.07 inches Hg (1018.4 mb)
Winds: from the E (100 degrees) at 13 MPH (11 knots; 5.7 m/s)
Visibility: 10 or more miles (16+ km)
Ceiling: 8500 feet AGL
Clouds: few clouds at 2300 feet AGL
overcast cloud deck at 8500 feet AGL
Present Weather: VCTS -RA  (thunderstorm in vicinity, light rain)
KGIF 202205Z AUTO 10011KT 10SM VCTS -RA FEW023 OVC085 26/23 A3007 RMK AO2 LTG DSNT N-SE TSE2159 P0001 T02560233

Conditions at: KGIF observed 20 August 2017  21:53 UTC
Temperature: 26.1°C (79°F)
Dewpoint: 23.3°C (74°F) [RH = 85%]
Pressure (altimeter): 30.07 inches Hg (1018.4 mb)
[Sea-level pressure: 1017.9 mb]
Winds: from the E (100 degrees) at 15 MPH (13 knots; 6.8 m/s)
Visibility: 10 or more miles (16+ km)
Ceiling: 9000 feet AGL
Clouds: scattered clouds at 2300 feet AGL
broken clouds at 9000 feet AGL
overcast cloud deck at 11000 feet AGL
Present Weather: -TSRA  (light rain associated with thunderstorm(s))
KGIF 202153Z AUTO 10013KT 10SM -TSRA SCT023 BKN090 OVC110 26/23 A3007 RMK AO2 LTG DSNT N-SE TSE06B44 SLP179 P0006 T02610233

Conditions at: KGIF observed 20 August 2017  21:50 UTC
Temperature: 26.0°C (79°F)
Dewpoint: 23.0°C (73°F) [RH = 84%]
Pressure (altimeter): 30.06 inches Hg (1018.0 mb)
Winds: from the E (90 degrees) at 8 MPH (7 knots; 3.6 m/s)
Visibility: 10 or more miles (16+ km)
Ceiling: 8000 feet AGL
Clouds: scattered clouds at 2300 feet AGL
broken clouds at 8000 feet AGL
overcast cloud deck at 9000 feet AGL
Present Weather: -TSRA  (light rain associated with thunderstorm(s))
KGIF 202150Z AUTO 09007KT 10SM -TSRA SCT023 BKN080 OVC090 26/23 A3006 RMK AO2 LTG DSNT N-SE TSE06B44 P0006

Conditions at: KGIF observed 20 August 2017  21:24 UTC
Temperature: 25.6°C (78°F)
Dewpoint: 23.3°C (74°F) [RH = 87%]
Pressure (altimeter): 30.05 inches Hg (1017.7 mb)
Winds: from the E (90 degrees) at 9 MPH (8 knots; 4.2 m/s)
Visibility: 7 miles (11 km)
Ceiling: 9500 feet AGL
Clouds: few clouds at 7000 feet AGL
overcast cloud deck at 9500 feet AGL
Present Weather: VCTS RA  (thunderstorm in vicinity, rain)
KGIF 202124Z AUTO 09008KT 7SM VCTS RA FEW070 OVC095 26/23 A3005 RMK AO2 LTG DSNT NE-SE TSE06 P0004 T02560233

Conditions at: KGIF observed 20 August 2017  21:12 UTC
Temperature: 25.6°C (78°F)
Dewpoint: 23.3°C (74°F) [RH = 87%]
Pressure (altimeter): 30.04 inches Hg (1017.4 mb)
Winds: from the E (90 degrees) at 13 MPH (11 knots; 5.7 m/s)
Visibility: 6 miles (10 km)
Ceiling: 9500 feet AGL
Clouds: few clouds at 4300 feet AGL
scattered clouds at 7000 feet AGL
overcast cloud deck at 9500 feet AGL
Present Weather: RA BR  (rain, mist)
KGIF 202112Z AUTO 09011KT 6SM RA BR FEW043 SCT070 OVC095 26/23 A3004 RMK AO2 LTG DSNT ALQDS TSE06 P0002 T02560233

Conditions at: KGIF observed 20 August 2017  20:53 UTC
Temperature: 28.3°C (83°F)
Dewpoint: 23.3°C (74°F) [RH = 74%]
Pressure (altimeter): 30.05 inches Hg (1017.7 mb)
[Sea-level pressure: 1017.3 mb]
Winds: from the E (100 degrees) at 14 MPH (12 knots; 6.2 m/s)
gusting to 23 MPH (20 knots; 10.4 m/s)
Visibility: 10 or more miles (16+ km)
Ceiling: 7500 feet AGL
Clouds: scattered clouds at 4300 feet AGL
broken clouds at 7500 feet AGL
overcast cloud deck at 10000 feet AGL
Present Weather: -TSRA  (light rain associated with thunderstorm(s))
KGIF 202053Z AUTO 10012G20KT 10SM -TSRA SCT043 BKN075 OVC100 28/23 A3005 RMK AO2 LTG DSNT ALQDS RAE03B45 TSB44 SLP173 P0000 60000 T02830233 53001

Conditions at: KGIF observed 20 August 2017  20:50 UTC
Temperature: 28.0°C (82°F)
Dewpoint: 23.0°C (73°F) [RH = 74%]
Pressure (altimeter): 30.05 inches Hg (1017.7 mb)
Winds: from the E (90 degrees) at 7 MPH (6 knots; 3.1 m/s)
Visibility: 10 or more miles (16+ km)
Ceiling: 7500 feet AGL
Clouds: few clouds at 4300 feet AGL
scattered clouds at 6000 feet AGL
broken clouds at 7500 feet AGL
Present Weather: -TSRA  (light rain associated with thunderstorm(s))
KGIF 202050Z AUTO 09006KT 10SM -TSRA FEW043 SCT060 BKN075 28/23 A3005 RMK AO2 LTG DSNT ALQDS RAE03B45 TSB44 P0000

Conditions at: KGIF observed 20 August 2017  19:53 UTC
Temperature: 29.4°C (85°F)
Dewpoint: 20.0°C (68°F) [RH = 57%]
Pressure (altimeter): 30.04 inches Hg (1017.4 mb)
[Sea-level pressure: 1017.1 mb]
Winds: from the E (80 degrees) at 3 MPH (3 knots; 1.6 m/s)
Visibility: 10 or more miles (16+ km)
Ceiling: 12000 feet AGL
Clouds: few clouds at 4700 feet AGL
few clouds at 10000 feet AGL
broken clouds at 12000 feet AGL
Present Weather: VCTS -RA  (thunderstorm in vicinity, light rain)
KGIF 201953Z AUTO 08003KT 10SM VCTS -RA FEW047 FEW100 BKN120 29/20 A3004 RMK AO2 LTG DSNT S RAB41 TSB12E37 SLP171 P0000 T02940200

Conditions at: KGIF observed 20 August 2017  19:40 UTC
Temperature: 28.3°C (83°F)
Dewpoint: 19.4°C (67°F) [RH = 59%]
Pressure (altimeter): 30.04 inches Hg (1017.4 mb)
Winds: from the ESE (110 degrees) at 7 MPH (6 knots; 3.1 m/s)
Visibility: 10 or more miles (16+ km)
Ceiling: 12000 feet AGL
Clouds: few clouds at 10000 feet AGL
broken clouds at 12000 feet AGL
Present Weather: automated observation with no human augmentation;
there may or may not be significant weather present at this time
KGIF 201940Z AUTO 11006KT 10SM FEW100 BKN120 28/19 A3004 RMK AO2 LTG DSNT S TSB12E37 T02830194

Conditions at: KGIF observed 20 August 2017  19:18 UTC
Temperature: 29.4°C (85°F)
Dewpoint: 22.2°C (72°F) [RH = 65%]
Pressure (altimeter): 30.05 inches Hg (1017.7 mb)
Winds: from the E (100 degrees) at 15 MPH (13 knots; 6.8 m/s)
Visibility: 10 or more miles (16+ km)
Ceiling: at least 12,000 feet AGL
Clouds: scattered clouds at 3200 feet AGL
scattered clouds at 4800 feet AGL
Present Weather: TS  (thunderstorm)
KGIF 201918Z AUTO 10013KT 10SM TS SCT032 SCT048 29/22 A3005 RMK AO2 TSB12 T02940222

Conditions at: KGIF observed 20 August 2017  19:07 UTC
Temperature: 30.6°C (87°F)
Dewpoint: 22.8°C (73°F) [RH = 63%]
Pressure (altimeter): 30.05 inches Hg (1017.7 mb)
Winds: from the E (80 degrees) at 12 MPH (10 knots; 5.2 m/s)
Visibility: 10 or more miles (16+ km)
Ceiling: 3300 feet AGL
Clouds: broken clouds at 3300 feet AGL
broken clouds at 4700 feet AGL
broken clouds at 6000 feet AGL
Present Weather: automated observation with no human augmentation;
there may or may not be significant weather present at this time
KGIF 201907Z AUTO 08010KT 10SM BKN033 BKN047 BKN060 31/23 A3005 RMK AO2 T03060228

Conditions at: KGIF observed 20 August 2017  18:53 UTC
Temperature: 32.2°C (90°F)
Dewpoint: 22.8°C (73°F) [RH = 58%]
Pressure (altimeter): 30.05 inches Hg (1017.7 mb)
[Sea-level pressure: 1017.2 mb]
Winds: from the E (100 degrees) at 10 MPH (9 knots; 4.7 m/s)
Visibility: 10 or more miles (16+ km)
Ceiling: 5000 feet AGL
Clouds: scattered clouds at 3500 feet AGL
scattered clouds at 4200 feet AGL
broken clouds at 5000 feet AGL
Present Weather: VCTS  (thunderstorm in vicinity)
KGIF 201853Z AUTO 10009KT 10SM VCTS SCT035 SCT042 BKN050 32/23 A3005 RMK AO2 LTG DSNT E SLP172 T03220228

Conditions at: KGIF observed 20 August 2017  18:49 UTC
Temperature: 32.0°C (90°F)
Dewpoint: 23.0°C (73°F) [RH = 59%]
Pressure (altimeter): 30.05 inches Hg (1017.7 mb)
Winds: from the E (100 degrees) at 12 MPH (10 knots; 5.2 m/s)
Visibility: 10 or more miles (16+ km)
Ceiling: at least 12,000 feet AGL
Clouds: scattered clouds at 3500 feet AGL
scattered clouds at 5000 feet AGL
Present Weather: VCTS  (thunderstorm in vicinity)
KGIF 201849Z AUTO 10010KT 10SM VCTS SCT035 SCT050 32/23 A3005 RMK AO2

Conditions at: KGIF observed 20 August 2017  17:53 UTC
Temperature: 31.1°C (88°F)
Dewpoint: 22.8°C (73°F) [RH = 61%]
Pressure (altimeter): 30.06 inches Hg (1018.0 mb)
[Sea-level pressure: 1017.5 mb]
Winds: from the ESE (120 degrees) at 8 MPH (7 knots; 3.6 m/s)
Visibility: 10 or more miles (16+ km)
Ceiling: at least 12,000 feet AGL
Clouds: few clouds at 3400 feet AGL
Present Weather: automated observation with no human augmentation;
there may or may not be significant weather present at this time
KGIF 201753Z AUTO 12007KT 10SM FEW034 31/23 A3006 RMK AO2 LTG DSNT E SLP175 T03110228 10317 20256 58002

Conditions at: KGIF observed 20 August 2017  16:53 UTC
Temperature: 31.1°C (88°F)
Dewpoint: 22.2°C (72°F) [RH = 59%]
Pressure (altimeter): 30.06 inches Hg (1018.0 mb)
[Sea-level pressure: 1017.7 mb]
Winds: from the E (90 degrees) at 7 MPH (6 knots; 3.1 m/s)
Visibility: 10 or more miles (16+ km)
Ceiling: at least 12,000 feet AGL
Clouds: sky clear below 12,000 feet AGL
Present Weather: automated observation with no human augmentation;
there may or may not be significant weather present at this time
KGIF 201653Z AUTO 09006KT 10SM CLR 31/22 A3006 RMK AO2 SLP177 T03110222

Conditions at: KGIF observed 20 August 2017  15:53 UTC
Temperature: 30.6°C (87°F)
Dewpoint: 23.3°C (74°F) [RH = 65%]
Pressure (altimeter): 30.08 inches Hg (1018.7 mb)
[Sea-level pressure: 1018.2 mb]
Winds: from the E (80 degrees) at 6 MPH (5 knots; 2.6 m/s)
Visibility: 10 or more miles (16+ km)
Ceiling: at least 12,000 feet AGL
Clouds: sky clear below 12,000 feet AGL
Present Weather: automated observation with no human augmentation;
there may or may not be significant weather present at this time
KGIF 201553Z AUTO 08005KT 10SM CLR 31/23 A3008 RMK AO2 SLP182 T03060233

Conditions at: KGIF observed 20 August 2017  14:53 UTC
Temperature: 30.6°C (87°F)
Dewpoint: 22.2°C (72°F) [RH = 61%]
Pressure (altimeter): 30.06 inches Hg (1018.0 mb)
[Sea-level pressure: 1017.7 mb]
Winds: from the E (100 degrees) at 5 MPH (4 knots; 2.1 m/s)
Visibility: 10 or more miles (16+ km)
Ceiling: at least 12,000 feet AGL
Clouds: sky clear below 12,000 feet AGL
Present Weather: automated observation with no human augmentation;
there may or may not be significant weather present at this time
KGIF 201453Z AUTO 10004KT 10SM CLR 31/22 A3006 RMK AO2 SLP177 T03060222 51007

Conditions at: KGIF observed 20 August 2017  13:53 UTC
Temperature: 28.9°C (84°F)
Dewpoint: 23.3°C (74°F) [RH = 72%]
Pressure (altimeter): 30.06 inches Hg (1018.0 mb)
[Sea-level pressure: 1017.7 mb]
Winds: from the ESE (110 degrees) at 5 MPH (4 knots; 2.1 m/s)
Visibility: 10 or more miles (16+ km)
Ceiling: at least 12,000 feet AGL
Clouds: sky clear below 12,000 feet AGL
Present Weather: automated observation with no human augmentation;
there may or may not be significant weather present at this time
KGIF 201353Z AUTO 11004KT 10SM CLR 29/23 A3006 RMK AO2 SLP177 T02890233

Conditions at: KGIF observed 20 August 2017  12:53 UTC
Temperature: 27.2°C (81°F)
Dewpoint: 24.4°C (76°F) [RH = 85%]
Pressure (altimeter): 30.06 inches Hg (1018.0 mb)
[Sea-level pressure: 1017.4 mb]
Winds: from the ESE (120 degrees) at 7 MPH (6 knots; 3.1 m/s)
Visibility: 10 or more miles (16+ km)
Ceiling: at least 12,000 feet AGL
Clouds: sky clear below 12,000 feet AGL
Present Weather: automated observation with no human augmentation;
there may or may not be significant weather present at this time
KGIF 201253Z AUTO 12006KT 10SM CLR 27/24 A3006 RMK AO2 SLP174 T02720244

Conditions at: KGIF observed 20 August 2017  11:53 UTC
Temperature: 25.6°C (78°F)
Dewpoint: 23.9°C (75°F) [RH = 90%]
Pressure (altimeter): 30.04 inches Hg (1017.4 mb)
[Sea-level pressure: 1017.1 mb]
Winds: from the ENE (60 degrees) at 5 MPH (4 knots; 2.1 m/s)
Visibility: 10 or more miles (16+ km)
Ceiling: at least 12,000 feet AGL
Clouds: sky clear below 12,000 feet AGL
Present Weather: automated observation with no human augmentation;
there may or may not be significant weather present at this time
KGIF 201153Z AUTO 06004KT 10SM CLR 26/24 A3004 RMK AO2 SLP171 T02560239 10272 20250 53016

Conditions at: KGIF observed 20 August 2017  10:53 UTC
Temperature: 25.6°C (78°F)
Dewpoint: 23.9°C (75°F) [RH = 90%]
Pressure (altimeter): 30.03 inches Hg (1017.0 mb)
[Sea-level pressure: 1016.5 mb]
Winds: from the N (10 degrees) at 5 MPH (4 knots; 2.1 m/s)
Visibility: 10 or more miles (16+ km)
Ceiling: at least 12,000 feet AGL
Clouds: sky clear below 12,000 feet AGL
Present Weather: automated observation with no human augmentation;
there may or may not be significant weather present at this time
KGIF 201053Z AUTO 01004KT 10SM CLR 26/24 A3003 RMK AO2 SLP165 T02560239

Conditions at: KGIF observed 20 August 2017  09:53 UTC
Temperature: 26.1°C (79°F)
Dewpoint: 23.9°C (75°F) [RH = 88%]
Pressure (altimeter): 30.01 inches Hg (1016.3 mb)
[Sea-level pressure: 1015.7 mb]
Winds: from the ESE (110 degrees) at 5 MPH (4 knots; 2.1 m/s)
Visibility: 10 or more miles (16+ km)
Ceiling: at least 12,000 feet AGL
Clouds: sky clear below 12,000 feet AGL
Present Weather: automated observation with no human augmentation;
there may or may not be significant weather present at this time
KGIF 200953Z AUTO 11004KT 10SM CLR 26/24 A3001 RMK AO2 SLP157 T02610239

Conditions at: KGIF observed 20 August 2017  08:53 UTC
Temperature: 26.1°C (79°F)
Dewpoint: 23.9°C (75°F) [RH = 88%]
Pressure (altimeter): 30.00 inches Hg (1016.0 mb)
[Sea-level pressure: 1015.4 mb]
Winds: from the ENE (70 degrees) at 5 MPH (4 knots; 2.1 m/s)
Visibility: 10 or more miles (16+ km)
Ceiling: at least 12,000 feet AGL
Clouds: sky clear below 12,000 feet AGL
Present Weather: automated observation with no human augmentation;
there may or may not be significant weather present at this time
KGIF 200853Z AUTO 07004KT 10SM CLR 26/24 A3000 RMK AO2 SLP154 T02610239 56005

Conditions at: KGIF observed 20 August 2017  07:53 UTC
Temperature: 26.7°C (80°F)
Dewpoint: 23.9°C (75°F) [RH = 85%]
Pressure (altimeter): 30.00 inches Hg (1016.0 mb)
[Sea-level pressure: 1015.5 mb]
Winds: from the ESE (120 degrees) at 3 MPH (3 knots; 1.6 m/s)
Visibility: 10 or more miles (16+ km)
Ceiling: at least 12,000 feet AGL
Clouds: sky clear below 12,000 feet AGL
Present Weather: automated observation with no human augmentation;
there may or may not be significant weather present at this time
KGIF 200753Z AUTO 12003KT 10SM CLR 27/24 A3000 RMK AO2 SLP155 T02670239

Conditions at: KGIF observed 20 August 2017  06:53 UTC
Temperature: 27.2°C (81°F)
Dewpoint: 23.9°C (75°F) [RH = 82%]
Pressure (altimeter): 30.00 inches Hg (1016.0 mb)
[Sea-level pressure: 1015.6 mb]
Winds: calm
Visibility: 10 or more miles (16+ km)
Ceiling: at least 12,000 feet AGL
Clouds: sky clear below 12,000 feet AGL
Present Weather: automated observation with no human augmentation;
there may or may not be significant weather present at this time
KGIF 200653Z AUTO 00000KT 10SM CLR 27/24 A3000 RMK AO2 SLP156 T02720239

Conditions at: KGIF observed 20 August 2017  05:53 UTC
Temperature: 26.7°C (80°F)
Dewpoint: 23.9°C (75°F) [RH = 85%]
Pressure (altimeter): 30.01 inches Hg (1016.3 mb)
[Sea-level pressure: 1016.0 mb]
Winds: from the SSW (210 degrees) at 5 MPH (4 knots; 2.1 m/s)
Visibility: 10 or more miles (16+ km)
Ceiling: at least 12,000 feet AGL
Clouds: sky clear below 12,000 feet AGL
Present Weather: automated observation with no human augmentation;
there may or may not be significant weather present at this time
KGIF 200553Z AUTO 21004KT 10SM CLR 27/24 A3001 RMK AO2 SLP160 T02670239 10317 20267 58002

Conditions at: KGIF observed 20 August 2017  04:53 UTC
Temperature: 27.8°C (82°F)
Dewpoint: 23.9°C (75°F) [RH = 79%]
Pressure (altimeter): 30.03 inches Hg (1017.0 mb)
[Sea-level pressure: 1016.4 mb]
Winds: variable direction winds at 6 MPH (5 knots; 2.6 m/s)
Visibility: 10 or more miles (16+ km)
Ceiling: at least 12,000 feet AGL
Clouds: scattered clouds at 1800 feet AGL
Present Weather: automated observation with no human augmentation;
there may or may not be significant weather present at this time
KGIF 200453Z AUTO VRB05KT 10SM SCT018 28/24 A3003 RMK AO2 SLP164 T02780239 403500233